Time;durP1;ratioP1;P1;durP2;ratioP2;P2;SDS_P1;SDS_P2;PMS_P1;PMS_P2;Temp;Humidity;BMP_temperature;BMP_pressure;BME280_temperature;BME280_humidity;BME280_pressure;Samples;Min_cycle;Max_cycle;Signal;HPM_P1;HPM_P2
2023/05/29 00:00:08;;;;;;;5.90;3.90;;;16.10;91.80;;;;;;5079467;28;20238;-76
2023/05/29 00:02:44;;;;;;;9.40;4.33;;;16.00;92.20;;;;;;5096064;28;20505;-75
2023/05/29 00:05:14;;;;;;;6.20;4.37;;;16.00;92.70;;;;;;5112648;28;20455;-77
2023/05/29 00:07:41;;;;;;;6.43;3.83;;;15.90;93.10;;;;;;5066181;28;20419;-77
2023/05/29 00:10:10;;;;;;;8.40;4.07;;;15.80;93.30;;;;;;5089523;28;20442;-75
2023/05/29 00:12:35;;;;;;;9.07;5.00;;;15.80;94.00;;;;;;5066240;28;20486;-76
2023/05/29 00:15:06;;;;;;;10.83;5.60;;;15.70;94.50;;;;;;5041003;28;20412;-77
2023/05/29 00:17:32;;;;;;;6.23;4.60;;;15.70;94.90;;;;;;5038610;28;20426;-76
2023/05/29 00:19:59;;;;;;;5.63;3.60;;;15.60;95.10;;;;;;5054198;28;20456;-77
2023/05/29 00:22:27;;;;;;;8.27;3.87;;;15.50;95.70;;;;;;5056372;28;20190;-76
2023/05/29 00:24:53;;;;;;;7.20;4.77;;;15.50;96.00;;;;;;5023888;28;20524;-76
2023/05/29 00:27:19;;;;;;;8.27;4.50;;;15.50;96.10;;;;;;5038615;28;20421;-77
2023/05/29 00:29:46;;;;;;;13.00;4.27;;;15.50;95.90;;;;;;5080695;28;20201;-77
2023/05/29 00:32:12;;;;;;;7.40;5.10;;;15.50;95.60;;;;;;5075799;28;20430;-76
2023/05/29 00:34:37;;;;;;;12.27;5.17;;;15.60;95.60;;;;;;5073830;28;20404;-75
2023/05/29 00:37:03;;;;;;;6.60;4.10;;;15.50;95.80;;;;;;5074720;28;20472;-77
2023/05/29 00:39:29;;;;;;;5.43;3.80;;;15.40;96.20;;;;;;5078162;28;20204;-76
2023/05/29 00:41:56;;;;;;;6.07;3.77;;;15.40;96.40;;;;;;5110154;28;20574;-75
2023/05/29 00:44:23;;;;;;;8.10;4.53;;;15.40;96.50;;;;;;5076138;28;20495;-76
2023/05/29 00:46:52;;;;;;;7.50;4.43;;;15.30;96.80;;;;;;5094849;28;20471;-76
2023/05/29 00:49:21;;;;;;;5.63;3.53;;;15.30;97.10;;;;;;5059630;28;20423;-78
2023/05/29 00:51:49;;;;;;;7.83;4.80;;;15.20;97.40;;;;;;5087482;28;20380;-77
2023/05/29 00:54:20;;;;;;;8.97;4.83;;;15.20;97.50;;;;;;5094091;28;20433;-77
2023/05/29 00:56:47;;;;;;;7.73;4.57;;;15.10;97.80;;;;;;5092479;28;20415;-77
2023/05/29 00:59:13;;;;;;;6.77;4.87;;;15.10;98.00;;;;;;5066543;28;20437;-76
2023/05/29 01:01:39;;;;;;;7.00;4.87;;;15.00;98.30;;;;;;5037832;28;20431;-75
2023/05/29 01:04:07;;;;;;;7.80;4.60;;;15.10;98.10;;;;;;5096155;28;20537;-76
2023/05/29 01:06:36;;;;;;;11.13;6.07;;;15.10;98.20;;;;;;5077529;28;20414;-76
2023/05/29 01:09:03;;;;;;;7.50;5.10;;;15.00;98.30;;;;;;5092818;28;20780;-75
2023/05/29 01:11:53;;;;;;;6.77;4.27;;;15.00;98.50;;;;;;5078536;28;20411;-76
2023/05/29 01:14:58;;;;;;;12.00;5.30;;;14.90;98.80;;;;;;5097242;28;20435;-75
2023/05/29 01:17:26;;;;;;;7.37;4.70;;;14.90;99.20;;;;;;5083408;28;20422;-76
2023/05/29 01:20:09;;;;;;;9.40;4.90;;;14.90;99.10;;;;;;5095679;28;20439;-77
2023/05/29 01:23:07;;;;;;;9.97;4.90;;;14.90;99.30;;;;;;5056942;28;20404;-76
2023/05/29 01:26:01;;;;;;;8.33;3.97;;;14.80;99.50;;;;;;5054225;28;20458;-76
2023/05/29 01:28:35;;;;;;;7.93;5.00;;;14.80;99.90;;;;;;5052791;28;20405;-75
2023/05/29 01:31:03;;;;;;;8.47;5.70;;;14.70;99.90;;;;;;5054473;28;20504;-74
2023/05/29 01:33:30;;;;;;;6.20;5.00;;;14.70;99.90;;;;;;5086928;28;20410;-75
2023/05/29 01:35:57;;;;;;;5.70;4.30;;;14.60;99.90;;;;;;5076633;28;20456;-76
2023/05/29 01:38:22;;;;;;;7.83;4.50;;;14.60;99.90;;;;;;5094074;28;20398;-77
2023/05/29 01:40:50;;;;;;;6.40;4.07;;;14.50;99.90;;;;;;5093512;28;20451;-76
2023/05/29 01:43:17;;;;;;;9.37;5.07;;;14.50;99.90;;;;;;5065138;28;20415;-79
2023/05/29 01:45:43;;;;;;;8.47;4.67;;;14.50;99.90;;;;;;5054591;28;20468;-76
2023/05/29 01:48:09;;;;;;;7.17;5.13;;;14.60;99.90;;;;;;5054301;28;20462;-74
2023/05/29 01:50:36;;;;;;;9.50;4.70;;;14.60;99.50;;;;;;5051341;28;20773;-75
2023/05/29 01:53:02;;;;;;;7.00;4.90;;;14.50;99.40;;;;;;5034191;28;20393;-75
2023/05/29 01:55:28;;;;;;;11.60;5.40;;;14.50;99.70;;;;;;5069757;28;20396;-75
2023/05/29 01:57:55;;;;;;;9.20;4.07;;;14.40;99.90;;;;;;5070661;28;20408;-77
2023/05/29 02:00:21;;;;;;;6.93;4.37;;;14.30;99.90;;;;;;5037473;28;20430;-74
2023/05/29 02:02:47;;;;;;;5.30;3.57;;;14.20;99.90;;;;;;5031729;28;20420;-75
2023/05/29 02:05:14;;;;;;;8.60;4.33;;;14.20;99.90;;;;;;5047088;28;20468;-76
2023/05/29 02:07:40;;;;;;;7.60;4.30;;;14.10;99.90;;;;;;5031704;28;20496;-75
2023/05/29 02:10:06;;;;;;;6.53;4.40;;;14.10;99.90;;;;;;5016240;28;20444;-76
2023/05/29 02:12:32;;;;;;;7.30;4.00;;;14.00;99.90;;;;;;5037311;28;20709;-76
2023/05/29 02:14:58;;;;;;;4.33;3.93;;;14.00;99.90;;;;;;5049657;28;20203;-76
2023/05/29 02:17:25;;;;;;;7.50;4.00;;;14.00;99.80;;;;;;5050897;28;20495;-77
2023/05/29 02:19:51;;;;;;;5.13;4.20;;;14.00;99.80;;;;;;5051804;28;20787;-77
2023/05/29 02:22:18;;;;;;;8.47;4.60;;;13.90;99.90;;;;;;5007789;28;20505;-75
2023/05/29 02:24:44;;;;;;;8.10;4.50;;;13.80;99.90;;;;;;4991191;28;20484;-74
2023/05/29 02:27:10;;;;;;;6.13;4.33;;;13.80;99.90;;;;;;4977164;28;20418;-75
2023/05/29 02:29:36;;;;;;;9.63;4.80;;;13.70;99.70;;;;;;4987631;28;20219;-75
2023/05/29 02:32:02;;;;;;;6.50;4.50;;;13.80;99.20;;;;;;5012406;28;20403;-75
2023/05/29 02:34:27;;;;;;;8.50;5.10;;;13.80;98.80;;;;;;5012039;28;20223;-75
2023/05/29 02:36:54;;;;;;;6.17;3.50;;;13.80;98.90;;;;;;5046174;28;20179;-74
2023/05/29 02:39:20;;;;;;;7.40;4.40;;;13.70;98.70;;;;;;5023790;28;20210;-76
2023/05/29 02:41:46;;;;;;;6.63;3.73;;;13.70;99.40;;;;;;5013100;28;20492;-76
2023/05/29 02:44:12;;;;;;;7.93;5.23;;;13.60;99.90;;;;;;4993612;28;20453;-76
2023/05/29 02:46:38;;;;;;;6.67;4.43;;;13.50;99.90;;;;;;4978719;28;20437;-76
2023/05/29 02:49:04;;;;;;;9.90;4.17;;;13.40;99.90;;;;;;4979310;28;20216;-77
2023/05/29 02:51:32;;;;;;;6.10;4.07;;;13.30;99.90;;;;;;5002314;28;20477;-77
2023/05/29 02:53:57;;;;;;;12.57;4.53;;;13.30;99.90;;;;;;5062268;28;20426;-76
2023/05/29 02:56:25;;;;;;;4.30;3.60;;;13.30;99.90;;;;;;5090082;28;20420;-75
2023/05/29 02:58:50;;;;;;;5.37;4.20;;;13.20;99.90;;;;;;5086452;28;20443;-75
2023/05/29 03:01:17;;;;;;;8.57;4.03;;;13.10;99.90;;;;;;5090620;28;20180;-74
2023/05/29 03:03:42;;;;;;;8.07;4.20;;;13.10;99.90;;;;;;5070008;28;20186;-76
2023/05/29 03:06:09;;;;;;;8.20;5.23;;;13.10;99.90;;;;;;5070178;28;20421;-75
2023/05/29 03:08:39;;;;;;;7.97;4.37;;;13.20;99.90;;;;;;5052761;28;20166;-75
2023/05/29 03:11:08;;;;;;;6.60;4.20;;;13.10;99.90;;;;;;5052725;28;20479;-75
2023/05/29 03:13:34;;;;;;;7.70;3.57;;;13.10;99.90;;;;;;5052604;28;20412;-75
2023/05/29 03:16:04;;;;;;;8.93;4.20;;;13.10;99.90;;;;;;5069010;28;20412;-80
2023/05/29 03:18:30;;;;;;;8.20;4.20;;;13.00;99.90;;;;;;5072973;28;20551;-76
2023/05/29 03:20:57;;;;;;;7.40;3.80;;;12.90;99.90;;;;;;5077807;28;20167;-74
2023/05/29 03:23:23;;;;;;;7.20;4.60;;;12.90;99.90;;;;;;5058293;28;20170;-75
2023/05/29 03:25:49;;;;;;;6.10;4.23;;;12.90;99.90;;;;;;5077351;28;20412;-75
2023/05/29 03:28:16;;;;;;;7.03;4.03;;;12.80;99.90;;;;;;5069902;28;20415;-75
2023/05/29 03:30:42;;;;;;;7.53;4.87;;;12.70;99.90;;;;;;5087329;28;20497;-76
2023/05/29 03:33:13;;;;;;;8.80;5.17;;;12.80;99.90;;;;;;5070736;28;20167;-77
2023/05/29 03:36:02;;;;;;;9.87;4.83;;;12.80;99.90;;;;;;5057765;28;20444;-75
2023/05/29 03:38:28;;;;;;;7.00;4.50;;;12.70;99.90;;;;;;5063691;28;20421;-76
2023/05/29 03:40:56;;;;;;;11.23;4.80;;;12.70;99.90;;;;;;5044938;28;20610;-75
2023/05/29 03:43:22;;;;;;;12.83;5.20;;;12.60;99.90;;;;;;5062326;28;20527;-75
2023/05/29 03:45:48;;;;;;;8.90;4.23;;;12.60;99.90;;;;;;5058614;28;20213;-75
2023/05/29 03:48:14;;;;;;;5.97;3.90;;;12.60;99.90;;;;;;5058123;28;20186;-74
2023/05/29 03:50:41;;;;;;;12.03;4.90;;;12.60;99.90;;;;;;5057646;28;20305;-76
2023/05/29 03:53:11;;;;;;;8.67;4.67;;;12.60;99.90;;;;;;5071109;28;20503;-75
2023/05/29 03:55:37;;;;;;;7.20;4.30;;;12.60;99.90;;;;;;5071456;28;20488;-75
2023/05/29 03:58:03;;;;;;;5.23;4.20;;;12.70;99.90;;;;;;5075089;28;20467;-76
2023/05/29 04:00:29;;;;;;;9.67;4.67;;;12.60;99.90;;;;;;5060458;28;20432;-75
2023/05/29 04:02:58;;;;;;;7.93;4.00;;;12.70;99.90;;;;;;5065054;28;20185;-77
2023/05/29 04:05:23;;;;;;;19.53;4.80;;;12.80;99.90;;;;;;5069143;28;20524;-74
2023/05/29 04:07:49;;;;;;;10.53;4.50;;;12.80;99.90;;;;;;5084776;28;20181;-74
2023/05/29 04:10:15;;;;;;;10.97;5.00;;;12.70;99.90;;;;;;5086001;28;20200;-75
2023/05/29 04:12:41;;;;;;;9.70;4.07;;;12.70;99.90;;;;;;5074507;28;20272;-74
2023/05/29 04:15:07;;;;;;;10.37;4.27;;;12.80;99.90;;;;;;5064579;28;20177;-74
2023/05/29 04:17:35;;;;;;;10.40;4.73;;;12.80;99.90;;;;;;5080375;28;20199;-73
2023/05/29 04:20:07;;;;;;;9.40;4.40;;;12.80;99.90;;;;;;5084360;28;20459;-74
2023/05/29 04:22:33;;;;;;;10.47;5.07;;;12.80;99.90;;;;;;5086127;28;20183;-74
2023/05/29 04:24:58;;;;;;;9.83;5.03;;;12.80;99.90;;;;;;5083008;28;20538;-74
2023/05/29 04:27:24;;;;;;;12.70;4.83;;;12.80;99.90;;;;;;5062240;28;20189;-75
2023/05/29 04:29:49;;;;;;;13.67;5.23;;;12.70;99.90;;;;;;5065081;28;20212;-73
2023/05/29 04:32:15;;;;;;;6.43;4.47;;;12.80;99.90;;;;;;5067378;28;20200;-74
2023/05/29 04:34:43;;;;;;;10.20;5.07;;;12.80;99.90;;;;;;5054541;28;20201;-75
2023/05/29 04:37:10;;;;;;;8.67;4.50;;;12.80;99.90;;;;;;5049348;28;20178;-78
2023/05/29 04:39:37;;;;;;;6.67;4.20;;;12.80;99.90;;;;;;5065700;28;20424;-73
2023/05/29 04:42:05;;;;;;;8.10;4.80;;;12.90;99.90;;;;;;5064105;28;20478;-76
2023/05/29 04:44:30;;;;;;;13.50;5.00;;;12.90;99.90;;;;;;5076755;28;20557;-74
2023/05/29 04:47:02;;;;;;;9.43;5.60;;;13.00;99.90;;;;;;5082296;28;20797;-73
2023/05/29 04:49:28;;;;;;;9.77;3.83;;;13.20;99.90;;;;;;5043886;28;20207;-74
2023/05/29 04:51:54;;;;;;;16.03;5.80;;;13.50;99.90;;;;;;5042659;28;20420;-73
2023/05/29 04:54:22;;;;;;;9.10;4.40;;;14.00;99.20;;;;;;5042023;28;20585;-74
2023/05/29 04:56:51;;;;;;;10.27;6.07;;;14.50;96.70;;;;;;5048379;28;20178;-75
2023/05/29 04:59:18;;;;;;;15.60;5.90;;;14.80;93.10;;;;;;5043679;28;20437;-74
2023/05/29 05:01:45;;;;;;;10.03;5.63;;;15.10;91.40;;;;;;5047411;28;20747;-75
2023/05/29 05:04:11;;;;;;;9.23;3.50;;;15.40;89.20;;;;;;5081460;28;20451;-74
2023/05/29 05:06:38;;;;;;;10.77;5.17;;;15.70;87.60;;;;;;5044983;28;20396;-75
2023/05/29 05:09:04;;;;;;;12.80;5.20;;;16.10;83.10;;;;;;5063665;28;20428;-75
2023/05/29 05:11:30;;;;;;;12.43;5.67;;;16.40;77.10;;;;;;5063606;28;20415;-73
2023/05/29 05:13:56;;;;;;;10.20;4.90;;;16.70;72.50;;;;;;5049002;28;20863;-73
2023/05/29 05:16:21;;;;;;;15.80;4.93;;;16.80;68.90;;;;;;5083345;28;20161;-74
2023/05/29 05:18:47;;;;;;;16.67;5.10;;;16.90;70.00;;;;;;5083550;28;20197;-75
2023/05/29 05:21:13;;;;;;;14.60;5.20;;;17.00;67.80;;;;;;5083788;28;20630;-77
2023/05/29 05:23:40;;;;;;;8.63;4.60;;;16.90;66.20;;;;;;5084018;28;20555;-75
2023/05/29 05:26:08;;;;;;;10.40;4.53;;;16.90;66.40;;;;;;5069761;28;20400;-75
2023/05/29 05:28:35;;;;;;;9.63;4.30;;;17.10;66.60;;;;;;5072493;28;20399;-75
2023/05/29 05:31:01;;;;;;;10.40;4.90;;;17.30;65.20;;;;;;5052203;28;20663;-75
2023/05/29 05:33:31;;;;;;;12.63;5.53;;;17.50;62.90;;;;;;5043542;28;20437;-75
2023/05/29 05:35:56;;;;;;;10.10;4.80;;;17.70;61.30;;;;;;5081671;28;20838;-75
2023/05/29 05:38:22;;;;;;;10.03;4.77;;;17.80;60.50;;;;;;5082441;28;20236;-75
2023/05/29 05:40:47;;;;;;;6.80;3.77;;;17.90;60.40;;;;;;5068077;28;20206;-76
2023/05/29 05:43:22;;;;;;;9.90;5.00;;;18.00;59.70;;;;;;5085578;28;20241;-75
2023/05/29 05:46:06;;;;;;;7.37;4.60;;;18.20;58.70;;;;;;5082969;28;20760;-74
2023/05/29 05:48:34;;;;;;;12.33;4.43;;;18.30;58.50;;;;;;5083776;28;20407;-75
2023/05/29 05:50:59;;;;;;;11.03;5.37;;;18.40;57.60;;;;;;5088665;28;20472;-74
2023/05/29 05:53:25;;;;;;;9.00;4.23;;;18.40;57.30;;;;;;5071216;28;20403;-75
2023/05/29 05:55:51;;;;;;;9.97;4.10;;;18.50;57.20;;;;;;5072285;28;20424;-76
2023/05/29 05:58:17;;;;;;;10.93;4.60;;;18.60;56.80;;;;;;5076899;28;20190;-74
2023/05/29 06:00:43;;;;;;;10.90;4.77;;;18.60;56.30;;;;;;5057265;28;20205;-75
2023/05/29 06:03:09;;;;;;;12.07;4.50;;;18.60;56.00;;;;;;5089287;28;20473;-74
2023/05/29 06:05:51;;;;;;;9.03;3.30;;;18.60;56.10;;;;;;5048699;28;20209;-75
2023/05/29 06:08:17;;;;;;;14.93;5.20;;;18.70;56.20;;;;;;5049692;28;20410;-74
2023/05/29 06:10:43;;;;;;;9.57;4.00;;;18.90;54.80;;;;;;5049163;28;20436;-76
2023/05/29 06:13:09;;;;;;;11.10;4.60;;;18.90;55.20;;;;;;5032671;28;20179;-75
2023/05/29 06:15:44;;;;;;;9.77;4.20;;;19.20;54.50;;;;;;5049804;28;20422;-74
2023/05/29 06:18:09;;;;;;;14.60;4.83;;;19.00;54.30;;;;;;5068386;28;20825;-75
2023/05/29 06:20:36;;;;;;;9.63;3.90;;;18.90;54.50;;;;;;5050366;28;20439;-74
2023/05/29 06:23:02;;;;;;;10.03;4.13;;;19.00;55.00;;;;;;5049624;28;20187;-75
2023/05/29 06:25:33;;;;;;;8.07;4.30;;;19.10;54.60;;;;;;5034937;28;20464;-76
2023/05/29 06:28:05;;;;;;;13.43;4.93;;;19.30;54.00;;;;;;5067956;28;20484;-75
2023/05/29 06:30:31;;;;;;;13.40;5.20;;;19.30;53.30;;;;;;5050644;28;20954;-75
2023/05/29 06:32:58;;;;;;;9.70;3.97;;;19.00;53.90;;;;;;5049965;28;20458;-76
2023/05/29 06:35:29;;;;;;;9.13;4.00;;;19.10;54.30;;;;;;5054870;28;20726;-75
2023/05/29 06:37:55;;;;;;;8.00;3.60;;;19.40;53.50;;;;;;5055330;28;20427;-76
2023/05/29 06:40:20;;;;;;;11.73;5.10;;;19.50;53.00;;;;;;5053578;28;20592;-76
2023/05/29 06:42:46;;;;;;;9.83;4.53;;;19.60;52.30;;;;;;5055403;28;20204;-74
2023/05/29 06:45:15;;;;;;;14.57;5.13;;;19.80;52.00;;;;;;5076454;28;20219;-76
2023/05/29 06:47:42;;;;;;;12.83;5.13;;;19.70;51.80;;;;;;5076567;28;20532;-75
2023/05/29 06:50:08;;;;;;;7.97;3.20;;;19.40;52.20;;;;;;5056810;28;20502;-76
2023/05/29 06:52:36;;;;;;;9.33;3.90;;;19.40;52.80;;;;;;5056464;28;20794;-77
2023/05/29 06:55:14;;;;;;;12.00;3.90;;;19.40;52.40;;;;;;5073044;28;20468;-75
2023/05/29 06:57:41;;;;;;;9.30;3.60;;;19.40;52.40;;;;;;5068460;28;20436;-76
2023/05/29 07:00:08;;;;;;;8.63;3.30;;;19.30;52.70;;;;;;5089526;28;20481;-75
2023/05/29 07:02:38;;;;;;;10.50;3.43;;;19.30;52.50;;;;;;5074751;28;20215;-76
2023/05/29 07:05:05;;;;;;;11.30;3.67;;;19.20;52.30;;;;;;5094065;28;20537;-75
2023/05/29 07:07:31;;;;;;;7.17;3.40;;;19.20;52.60;;;;;;5076062;28;20164;-79
2023/05/29 07:09:58;;;;;;;9.57;3.60;;;19.10;52.70;;;;;;5074967;28;20431;-76
2023/05/29 07:12:24;;;;;;;10.23;3.83;;;19.10;52.60;;;;;;5063468;28;20563;-76
2023/05/29 07:14:50;;;;;;;7.93;3.53;;;19.00;52.80;;;;;;5073490;28;20411;-76
2023/05/29 07:17:15;;;;;;;10.80;4.33;;;19.00;53.00;;;;;;5095198;28;20594;-75
2023/05/29 07:19:42;;;;;;;10.50;3.80;;;19.10;52.70;;;;;;5078064;28;20194;-75
2023/05/29 07:22:10;;;;;;;9.73;3.20;;;19.00;52.90;;;;;;5092603;28;20519;-75
2023/05/29 07:24:36;;;;;;;6.27;3.43;;;18.90;53.00;;;;;;5073425;28;20454;-75
2023/05/29 07:27:03;;;;;;;10.30;3.60;;;19.00;53.10;;;;;;5057011;28;20480;-75
2023/05/29 07:29:29;;;;;;;8.30;3.83;;;18.80;53.30;;;;;;5072690;28;20491;-75
2023/05/29 07:31:55;;;;;;;9.60;3.90;;;18.70;53.50;;;;;;5040579;28;20174;-76
2023/05/29 07:34:22;;;;;;;7.70;3.30;;;18.40;54.00;;;;;;5071285;28;20432;-75
2023/05/29 07:37:06;;;;;;;12.13;5.10;;;18.20;54.90;;;;;;5053070;28;20462;-75
2023/05/29 07:39:34;;;;;;;9.87;3.97;;;18.00;55.20;;;;;;5046296;28;20223;-75
2023/05/29 07:42:06;;;;;;;16.40;4.17;;;17.70;56.40;;;;;;5075541;28;20414;-75
2023/05/29 07:44:32;;;;;;;14.47;5.37;;;17.60;56.40;;;;;;5073746;28;20464;-75
2023/05/29 07:46:58;;;;;;;10.50;4.90;;;17.50;56.80;;;;;;5057847;28;20428;-76
2023/05/29 07:49:33;;;;;;;13.03;4.37;;;17.50;57.20;;;;;;5075226;28;20197;-76
2023/05/29 07:52:00;;;;;;;13.97;4.10;;;17.40;57.70;;;;;;5075048;28;20483;-76
2023/05/29 07:54:27;;;;;;;13.17;4.20;;;17.30;58.00;;;;;;5075355;28;20498;-76
2023/05/29 07:56:53;;;;;;;13.70;4.53;;;17.30;58.50;;;;;;5074451;28;20441;-75
2023/05/29 07:59:18;;;;;;;11.47;3.67;;;17.40;58.60;;;;;;5037222;28;20658;-76
2023/05/29 08:01:45;;;;;;;11.40;4.50;;;17.50;58.50;;;;;;5054694;28;20521;-76
2023/05/29 08:04:28;;;;;;;18.00;4.43;;;17.60;58.60;;;;;;5053261;28;20678;-76
2023/05/29 08:06:54;;;;;;;11.43;3.93;;;17.70;57.90;;;;;;5038561;28;20445;-76
2023/05/29 08:09:20;;;;;;;8.50;3.80;;;17.70;58.00;;;;;;5037897;28;20193;-77
2023/05/29 08:11:50;;;;;;;14.57;5.27;;;17.70;58.00;;;;;;5055431;28;20428;-76
2023/05/29 08:14:16;;;;;;;9.37;4.30;;;17.80;58.00;;;;;;5037228;28;20420;-76
2023/05/29 08:16:42;;;;;;;12.00;5.03;;;17.80;57.90;;;;;;5037829;28;20429;-78
2023/05/29 08:19:10;;;;;;;9.90;3.77;;;17.80;57.80;;;;;;5072481;28;20604;-76
2023/05/29 08:21:37;;;;;;;11.83;4.77;;;17.80;58.00;;;;;;5071534;28;20416;-77
2023/05/29 08:24:05;;;;;;;11.70;4.67;;;18.00;57.60;;;;;;5055222;28;20214;-78
2023/05/29 08:26:31;;;;;;;7.47;3.37;;;18.00;57.40;;;;;;5039249;28;20437;-77
2023/05/29 08:28:56;;;;;;;7.13;4.00;;;18.00;57.60;;;;;;5067939;28;20452;-75
2023/05/29 08:31:25;;;;;;;9.33;3.93;;;18.00;57.60;;;;;;5054427;28;20189;-75
2023/05/29 08:33:52;;;;;;;16.83;5.70;;;18.00;57.60;;;;;;5053445;28;20183;-76
2023/05/29 08:36:17;;;;;;;10.40;4.40;;;18.00;57.50;;;;;;5056608;28;20408;-74
2023/05/29 08:38:43;;;;;;;9.80;3.70;;;18.00;57.30;;;;;;5092740;28;20465;-79
2023/05/29 08:41:12;;;;;;;13.50;4.20;;;18.10;57.70;;;;;;5081467;28;20201;-76
2023/05/29 08:43:42;;;;;;;8.50;4.00;;;18.20;57.50;;;;;;5091003;28;20424;-75
2023/05/29 08:46:10;;;;;;;8.70;3.70;;;18.50;56.60;;;;;;5090976;28;20463;-76
2023/05/29 08:48:39;;;;;;;9.33;4.00;;;18.50;56.60;;;;;;5075200;28;20404;-77
2023/05/29 08:51:07;;;;;;;10.50;4.17;;;18.50;56.40;;;;;;5091551;28;20388;-75
2023/05/29 08:53:33;;;;;;;10.60;4.00;;;18.50;56.60;;;;;;5075986;28;20466;-77
2023/05/29 08:56:01;;;;;;;11.60;4.23;;;18.50;56.70;;;;;;5093364;28;20398;-76
2023/05/29 08:58:27;;;;;;;10.47;4.33;;;18.60;56.20;;;;;;5091741;28;20416;-77
2023/05/29 09:00:53;;;;;;;9.47;4.40;;;18.70;56.00;;;;;;5070771;28;20383;-76
2023/05/29 09:03:20;;;;;;;9.47;4.63;;;18.70;56.20;;;;;;5058474;28;20198;-76
2023/05/29 09:05:46;;;;;;;9.00;4.53;;;18.80;55.90;;;;;;5059388;28;20458;-75
2023/05/29 09:08:12;;;;;;;9.83;3.60;;;18.70;55.70;;;;;;5093852;28;20488;-75
2023/05/29 09:10:41;;;;;;;7.17;4.27;;;18.80;56.20;;;;;;5094451;28;20209;-74
2023/05/29 09:13:09;;;;;;;10.13;4.20;;;18.90;55.90;;;;;;5081019;28;20421;-75
2023/05/29 09:15:38;;;;;;;14.83;4.27;;;18.90;55.60;;;;;;5066170;28;20454;-75
2023/05/29 09:18:04;;;;;;;15.70;4.80;;;18.80;55.80;;;;;;5077894;28;20438;-75
2023/05/29 09:20:30;;;;;;;9.77;4.53;;;18.80;56.00;;;;;;5093245;28;20911;-76
2023/05/29 09:23:03;;;;;;;12.03;3.80;;;18.80;55.90;;;;;;5094397;28;20414;-76
2023/05/29 09:25:31;;;;;;;12.80;4.10;;;18.80;56.10;;;;;;5093380;28;20806;-76
2023/05/29 09:28:07;;;;;;;11.60;4.27;;;18.80;55.80;;;;;;5067945;28;20491;-77
2023/05/29 09:30:43;;;;;;;7.63;4.00;;;19.00;55.70;;;;;;5038482;28;20470;-77
2023/05/29 09:33:11;;;;;;;11.63;4.30;;;19.20;55.50;;;;;;5054343;28;20411;-77
2023/05/29 09:35:39;;;;;;;8.87;3.93;;;19.40;55.40;;;;;;5038368;28;20384;-76
2023/05/29 09:38:08;;;;;;;9.00;4.30;;;19.50;54.80;;;;;;5039464;28;20412;-77
2023/05/29 09:40:39;;;;;;;10.90;3.93;;;19.50;54.90;;;;;;5055515;28;20440;-79
2023/05/29 09:43:18;;;;;;;9.03;4.17;;;19.60;54.60;;;;;;5045547;28;20450;-77
2023/05/29 09:45:46;;;;;;;8.03;3.70;;;19.80;54.40;;;;;;5035304;28;20461;-78
2023/05/29 09:48:22;;;;;;;8.87;4.00;;;19.90;53.70;;;;;;5035614;28;20437;-76
2023/05/29 09:50:48;;;;;;;10.13;3.60;;;19.90;53.70;;;;;;5051652;28;20407;-77
2023/05/29 09:53:25;;;;;;;8.50;3.93;;;19.90;53.60;;;;;;5052706;28;20393;-77
2023/05/29 09:55:55;;;;;;;8.60;3.60;;;19.90;54.00;;;;;;5053665;28;20443;-79
2023/05/29 09:58:22;;;;;;;8.67;4.07;;;20.00;53.90;;;;;;5048958;28;20411;-76
2023/05/29 10:00:53;;;;;;;6.53;3.77;;;20.00;53.40;;;;;;5073010;28;20458;-77
2023/05/29 10:03:23;;;;;;;9.27;3.87;;;20.10;53.40;;;;;;5073228;28;20404;-76
2023/05/29 10:05:52;;;;;;;13.07;3.50;;;20.10;53.40;;;;;;4983468;28;20453;-75
2023/05/29 10:08:19;;;;;;;12.73;4.80;;;20.10;53.20;;;;;;5014079;28;20422;-75
2023/05/29 10:10:58;;;;;;;9.97;3.50;;;20.10;53.60;;;;;;5016520;28;20425;-75
2023/05/29 10:13:28;;;;;;;10.93;3.50;;;20.10;53.40;;;;;;5014949;28;20432;-76
2023/05/29 10:15:56;;;;;;;9.67;3.70;;;20.10;53.40;;;;;;5013743;28;20442;-78
2023/05/29 10:18:28;;;;;;;9.80;4.40;;;20.00;53.60;;;;;;5029798;28;20498;-76
2023/05/29 10:20:58;;;;;;;12.03;3.83;;;20.00;53.40;;;;;;4996695;28;20444;-75
2023/05/29 10:23:28;;;;;;;17.80;4.53;;;20.10;53.60;;;;;;5031089;28;20406;-77
2023/05/29 10:26:15;;;;;;;8.83;4.00;;;20.10;53.40;;;;;;4999787;28;20490;-76
2023/05/29 10:28:57;;;;;;;9.80;4.07;;;20.10;53.30;;;;;;5034996;28;20475;-77
2023/05/29 10:31:36;;;;;;;10.33;3.80;;;20.10;53.60;;;;;;5034468;28;20422;-77
2023/05/29 10:34:33;;;;;;;16.40;4.27;;;20.10;53.70;;;;;;5032558;28;20413;-75
2023/05/29 10:37:37;;;;;;;13.80;4.43;;;20.10;53.90;;;;;;5036397;28;20396;-76
2023/05/29 10:40:06;;;;;;;11.03;4.47;;;20.30;53.30;;;;;;5051809;28;20530;-76
2023/05/29 10:42:49;;;;;;;10.77;4.93;;;20.40;52.90;;;;;;5057688;28;20466;-78
2023/05/29 10:45:44;;;;;;;11.73;4.30;;;20.40;53.00;;;;;;5070577;28;20479;-77
2023/05/29 10:48:11;;;;;;;9.73;3.27;;;20.30;53.10;;;;;;5058520;28;20418;-76
2023/05/29 10:50:40;;;;;;;10.87;4.37;;;20.30;53.00;;;;;;5075297;28;20464;-76
2023/05/29 10:53:14;;;;;;;12.07;4.90;;;20.40;53.10;;;;;;5059255;28;20269;-78
2023/05/29 10:55:41;;;;;;;10.23;4.23;;;20.40;52.90;;;;;;5056990;28;20434;-77
2023/05/29 10:58:19;;;;;;;8.63;3.77;;;20.30;53.20;;;;;;5082096;28;20420;-78
2023/05/29 11:00:48;;;;;;;9.93;4.37;;;20.40;52.90;;;;;;5089900;28;20511;-76
2023/05/29 11:03:22;;;;;;;9.70;4.43;;;20.50;52.60;;;;;;5075571;28;20412;-75
2023/05/29 11:06:02;;;;;;;12.23;4.40;;;20.50;52.50;;;;;;5076885;28;20434;-75
2023/05/29 11:08:53;;;;;;;11.33;4.73;;;20.70;53.10;;;;;;5075459;28;20435;-76
2023/05/29 11:11:31;;;;;;;11.40;4.70;;;20.80;52.00;;;;;;5058055;28;20408;-76
2023/05/29 11:14:02;;;;;;;12.10;4.70;;;20.80;51.70;;;;;;5059594;28;20404;-76
2023/05/29 11:16:32;;;;;;;6.70;3.97;;;20.80;52.20;;;;;;5044150;28;20432;-77
2023/05/29 11:19:06;;;;;;;8.87;4.63;;;20.90;51.80;;;;;;5077247;28;20464;-80
2023/05/29 11:21:47;;;;;;;11.07;4.80;;;21.00;51.60;;;;;;5060335;28;20393;-78
2023/05/29 11:24:23;;;;;;;10.30;5.53;;;21.10;51.90;;;;;;5058062;28;20494;-77
2023/05/29 11:27:11;;;;;;;8.90;5.00;;;21.30;51.00;;;;;;5026618;28;20472;-77
2023/05/29 11:29:39;;;;;;;12.00;5.40;;;21.30;50.90;;;;;;5041973;28;20441;-78
2023/05/29 11:32:09;;;;;;;11.23;4.63;;;21.20;51.00;;;;;;5039506;28;20394;-76
2023/05/29 11:34:41;;;;;;;15.00;5.47;;;21.10;51.20;;;;;;5022775;28;20528;-77
2023/05/29 11:37:08;;;;;;;8.80;4.20;;;21.20;50.80;;;;;;5022334;28;20456;-78
2023/05/29 11:39:37;;;;;;;13.53;4.97;;;21.20;51.00;;;;;;5039946;28;20544;-77
2023/05/29 11:42:06;;;;;;;12.80;4.63;;;21.10;51.50;;;;;;5026047;28;20441;-78
2023/05/29 11:44:33;;;;;;;11.73;5.37;;;21.30;51.30;;;;;;5042370;28;20518;-79
2023/05/29 11:47:04;;;;;;;9.13;3.83;;;21.40;50.70;;;;;;5074794;28;20408;-78
2023/05/29 11:49:35;;;;;;;9.83;4.63;;;21.40;50.60;;;;;;5063614;28;20291;-77
2023/05/29 11:52:13;;;;;;;8.50;4.10;;;21.50;50.30;;;;;;5061646;28;20407;-76
2023/05/29 11:54:46;;;;;;;9.60;4.50;;;21.60;50.30;;;;;;5048512;28;20439;-77
2023/05/29 11:57:24;;;;;;;7.80;4.00;;;21.60;50.00;;;;;;5078828;28;20474;-79
2023/05/29 12:00:00;;;;;;;10.77;4.50;;;21.70;50.10;;;;;;5085383;28;20513;-78
2023/05/29 12:02:31;;;;;;;14.20;5.27;;;21.70;49.90;;;;;;5076432;28;20426;-77
2023/05/29 12:05:07;;;;;;;11.63;5.10;;;21.90;50.10;;;;;;5027892;28;20472;-77
2023/05/29 12:07:34;;;;;;;10.33;4.30;;;22.00;49.70;;;;;;5077222;28;20471;-77
2023/05/29 12:10:14;;;;;;;7.93;4.77;;;22.00;50.00;;;;;;5061533;28;20412;-77
2023/05/29 12:12:41;;;;;;;12.83;4.77;;;22.10;49.10;;;;;;5070784;28;20436;-79
2023/05/29 12:15:09;;;;;;;8.57;4.30;;;22.10;49.10;;;;;;5039681;28;20380;-78
2023/05/29 12:17:35;;;;;;;10.93;4.40;;;22.20;48.90;;;;;;5039737;28;20426;-78
2023/05/29 12:20:06;;;;;;;15.83;5.70;;;22.20;48.90;;;;;;5039856;28;20409;-79
2023/05/29 12:22:37;;;;;;;9.47;4.13;;;22.20;48.80;;;;;;5008004;28;20394;-79
2023/05/29 12:25:32;;;;;;;11.10;4.27;;;22.30;48.20;;;;;;5057157;28;20523;-78
2023/05/29 12:28:00;;;;;;;11.40;4.80;;;22.40;48.10;;;;;;4980683;28;20420;-79
2023/05/29 12:30:41;;;;;;;11.17;4.83;;;22.50;47.80;;;;;;5080526;23;20585;-79
2023/05/29 12:33:07;;;;;;;7.33;3.90;;;22.50;47.20;;;;;;5096102;28;20431;-78
2023/05/29 12:35:34;;;;;;;7.50;3.73;;;22.40;47.60;;;;;;5063428;28;20442;-78
2023/05/29 12:38:08;;;;;;;13.23;4.63;;;22.40;47.60;;;;;;5096570;28;20452;-76
2023/05/29 12:40:39;;;;;;;14.03;4.40;;;22.50;47.30;;;;;;5219346;22;20502;-77
2023/05/29 12:43:25;;;;;;;10.07;4.57;;;22.30;47.40;;;;;;5041312;28;20423;-80
2023/05/29 12:45:58;;;;;;;13.30;4.27;;;22.40;47.50;;;;;;5039696;28;20464;-79
2023/05/29 12:48:28;;;;;;;13.77;4.47;;;22.30;47.10;;;;;;5022778;28;20485;-78
2023/05/29 12:51:07;;;;;;;12.93;4.27;;;22.30;47.00;;;;;;5022531;28;20406;-78
2023/05/29 12:53:34;;;;;;;8.17;3.60;;;22.30;47.20;;;;;;5021378;28;20492;-77